Terminal Aerodrome Forecast
Issued by NWS Duluth, MN

Home | Current Version | Previous Version | Text Only | Print | Product List | Glossary On
Versions: 1 2 3 4 5 6 7 8 9 10 11 12 13 14 15 16 17 18 19 20
000
FTUS43 KDLH 260100 AAA
TAFINL
TAF AMD
KINL 260135Z 2602/2624 27006KT P6SM VCSH SCT026 OVC045
      TEMPO 2602/2605 27009G15KT -SHRA BKN028
     FM260500 27008G12KT P6SM SCT018 BKN028
     FM261000 28006KT P6SM BKN024
     FM261500 30010G17KT P6SM BKN030
     FM262000 31013G20KT P6SM BKN035=

USA.gov is the U.S. government's official web portal to all federal, state and local government web resources and services.